aviador You're here:

SAAR Decoded Metar

ROSARIO in ARGENTINA
Report Time2018-01-21 08:00:00
UTC Time2018-01-21 08:34:30
Flight Rules vfr VFR
Wind180° at 06 kt
W.Decomp.*RWY 20: 5.8 kt HW 1.6 kt LCW
W.Rank180° ranks 2
Current wind is below 180° avg. (7.3)
Visibility9999 m
Phenomena:N/A
Clouds:N/A
Expected CloudBase > 2,000 ft AGL from Temp-Dew spread
CeilingNone
Temp22°C (ISA +7)
Dew Point17°C (73% RH)
QNH1008 hPa
Density Alt1,342 ft
Elevation82 ft
Report Wrong Elevation
Raw Report
METAR SAAR 210800Z 18006KT CAVOK 22/17 Q1008=

Extra information for SAAR:More info

Metar Taf Metar & Taf Last 4 Metars F.Rules Stats Wind Profile Meteogram Temp Stats Airport Information Weather charts Add Link Nearby VenuesMetar ALERT Operation Metar Decoded Social comments